Time;durP1;ratioP1;P1;durP2;ratioP2;P2;SDS_P1;SDS_P2;PMS_P1;PMS_P2;Temp;Humidity;BMP_temperature;BMP_pressure;BME280_temperature;BME280_humidity;BME280_pressure;Samples;Min_cycle;Max_cycle;Signal;HPM_P1;HPM_P2
2023/05/19 00:01:51;;;;;;;8.23;1.23;;;;;;;10.29;76.22;102232.22;5056128;28;20955;-68
2023/05/19 00:04:18;;;;;;;6.23;1.40;;;;;;;10.23;76.54;102227.00;5056375;28;20473;-68
2023/05/19 00:06:50;;;;;;;9.13;1.30;;;;;;;10.18;76.50;102230.47;5055906;28;20489;-68
2023/05/19 00:09:17;;;;;;;5.00;1.20;;;;;;;10.14;76.34;102229.38;5056233;28;20466;-68
2023/05/19 00:11:44;;;;;;;10.63;1.70;;;;;;;10.15;76.34;102225.56;5056287;28;20481;-68
2023/05/19 00:14:11;;;;;;;5.47;1.30;;;;;;;10.18;76.21;102219.66;5056165;28;20446;-68
2023/05/19 00:16:39;;;;;;;5.67;1.33;;;;;;;10.23;75.86;102227.81;5055986;28;20844;-68
2023/05/19 00:19:08;;;;;;;4.90;1.23;;;;;;;10.18;75.62;102216.09;5055750;28;20468;-68
2023/05/19 00:21:37;;;;;;;4.60;0.80;;;;;;;10.17;75.87;102220.69;5056035;28;20453;-67
2023/05/19 00:24:06;;;;;;;6.93;1.30;;;;;;;10.14;75.75;102218.53;5056043;28;20442;-68
2023/05/19 00:26:32;;;;;;;8.63;1.20;;;;;;;10.10;75.86;102214.72;5055549;28;20481;-67
2023/05/19 00:28:59;;;;;;;6.10;1.13;;;;;;;10.02;76.45;102215.97;5056154;28;20520;-67
2023/05/19 00:31:26;;;;;;;4.70;0.80;;;;;;;10.05;75.55;102222.78;5055906;28;20430;-67
2023/05/19 00:33:52;;;;;;;5.57;1.30;;;;;;;10.01;75.52;102216.25;5055851;28;20919;-67
2023/05/19 00:36:19;;;;;;;11.03;1.47;;;;;;;9.93;75.54;102220.22;5055793;28;20539;-67
2023/05/19 00:38:46;;;;;;;6.20;1.00;;;;;;;10.03;75.08;102224.91;5055380;28;20448;-67
2023/05/19 00:41:14;;;;;;;6.33;1.03;;;;;;;10.04;74.82;102223.84;5055725;28;20481;-67
2023/05/19 00:43:40;;;;;;;7.23;1.23;;;;;;;9.99;74.83;102219.19;5055365;28;21013;-67
2023/05/19 00:46:07;;;;;;;5.73;0.87;;;;;;;9.93;75.25;102230.25;5055535;28;20490;-67
2023/05/19 00:48:34;;;;;;;7.87;1.80;;;;;;;9.93;75.27;102222.13;5055174;28;20439;-67
2023/05/19 00:51:03;;;;;;;5.83;1.27;;;;;;;9.86;73.79;102225.84;5055714;28;20481;-67
2023/05/19 00:53:30;;;;;;;5.67;1.10;;;;;;;9.81;73.32;102217.66;5055441;28;20439;-67
2023/05/19 00:55:57;;;;;;;5.43;1.20;;;;;;;9.77;72.28;102219.25;5055431;28;20434;-67
2023/05/19 00:58:28;;;;;;;8.80;1.60;;;;;;;9.73;72.08;102220.81;5054429;28;20477;-67
2023/05/19 01:01:01;;;;;;;5.60;0.87;;;;;;;9.73;72.20;102222.72;5055278;28;20463;-68
2023/05/19 01:03:29;;;;;;;16.93;1.23;;;;;;;9.69;71.55;102219.69;5055306;28;20545;-66
2023/05/19 01:05:56;;;;;;;10.20;1.97;;;;;;;9.69;72.39;102221.59;5055140;28;20486;-68
2023/05/19 01:08:23;;;;;;;5.63;1.20;;;;;;;9.68;73.98;102220.78;5054850;28;20464;-68
2023/05/19 01:10:50;;;;;;;6.40;1.60;;;;;;;9.66;74.21;102214.81;5054733;28;20498;-67
2023/05/19 01:13:16;;;;;;;10.10;1.50;;;;;;;9.60;74.82;102213.13;5054789;28;20478;-68
2023/05/19 01:15:58;;;;;;;4.80;0.83;;;;;;;9.62;74.80;102210.97;5054762;28;20442;-68
2023/05/19 01:18:36;;;;;;;6.63;1.30;;;;;;;9.62;75.26;102215.59;5054990;28;20433;-68
2023/05/19 01:21:21;;;;;;;5.27;1.03;;;;;;;9.64;74.82;102206.13;5055012;28;20461;-68
2023/05/19 01:23:56;;;;;;;5.20;1.30;;;;;;;9.63;74.96;102209.09;5054618;28;20465;-68
2023/05/19 01:26:41;;;;;;;6.50;1.33;;;;;;;9.63;75.24;102211.81;5054801;28;20644;-68
2023/05/19 01:29:30;;;;;;;5.00;1.20;;;;;;;9.57;75.20;102216.34;5054763;28;20549;-67
2023/05/19 01:32:00;;;;;;;8.43;1.67;;;;;;;9.62;74.86;102218.28;5053871;28;20894;-67
2023/05/19 01:34:27;;;;;;;9.87;1.70;;;;;;;9.56;75.02;102217.41;5054751;28;20484;-68
2023/05/19 01:36:55;;;;;;;8.83;1.70;;;;;;;9.53;75.94;102217.91;5054659;28;20438;-68
2023/05/19 01:39:23;;;;;;;6.23;1.60;;;;;;;9.52;76.03;102209.00;5054234;28;20515;-68
2023/05/19 01:41:50;;;;;;;9.90;1.43;;;;;;;9.48;76.00;102215.16;5054824;28;20444;-67
2023/05/19 01:44:17;;;;;;;5.07;1.07;;;;;;;9.48;75.50;102215.97;5054490;28;20488;-68
2023/05/19 01:46:45;;;;;;;9.57;1.80;;;;;;;9.48;75.64;102215.16;5054084;28;20525;-67
2023/05/19 01:49:13;;;;;;;5.93;1.47;;;;;;;9.39;76.07;102216.69;5054278;28;20466;-67
2023/05/19 01:51:40;;;;;;;9.23;1.80;;;;;;;9.32;76.34;102216.84;5054217;28;20525;-67
2023/05/19 01:54:07;;;;;;;5.53;1.30;;;;;;;9.33;76.11;102221.19;5053993;28;20953;-67
2023/05/19 01:56:41;;;;;;;9.00;1.63;;;;;;;9.32;76.12;102223.09;5054483;28;20445;-67
2023/05/19 01:59:22;;;;;;;6.17;1.87;;;;;;;9.38;76.06;102223.13;5053954;28;20500;-67
2023/05/19 02:01:53;;;;;;;7.03;1.70;;;;;;;9.33;76.40;102221.19;5054253;28;20438;-67
2023/05/19 02:04:29;;;;;;;5.80;1.50;;;;;;;9.28;76.19;102224.66;5054206;28;20786;-68
2023/05/19 02:07:03;;;;;;;9.97;2.30;;;;;;;9.30;75.52;102217.13;5054108;28;20500;-68
2023/05/19 02:09:39;;;;;;;5.70;1.33;;;;;;;9.33;74.73;102221.19;5053921;28;20548;-67
2023/05/19 02:12:14;;;;;;;10.20;2.20;;;;;;;9.31;74.25;102229.56;5053740;28;20426;-67
2023/05/19 02:14:48;;;;;;;6.97;1.30;;;;;;;9.23;73.88;102230.00;5054023;28;20450;-67
2023/05/19 02:17:17;;;;;;;7.70;1.27;;;;;;;9.16;73.29;102223.13;5053917;28;20450;-67
2023/05/19 02:19:46;;;;;;;7.90;2.33;;;;;;;9.05;74.86;102217.59;5053752;28;20559;-67
2023/05/19 02:22:12;;;;;;;5.80;1.07;;;;;;;9.01;75.34;102226.47;5053827;28;20438;-67
2023/05/19 02:24:40;;;;;;;5.80;1.20;;;;;;;9.00;75.22;102214.03;5053536;28;20445;-68
2023/05/19 02:27:06;;;;;;;6.03;1.70;;;;;;;8.96;76.71;102219.09;5053645;28;20887;-67
2023/05/19 02:29:33;;;;;;;4.90;1.00;;;;;;;8.91;77.71;102215.53;5053365;28;20533;-67
2023/05/19 02:32:00;;;;;;;8.40;1.40;;;;;;;8.86;78.25;102212.75;5053949;28;20534;-67
2023/05/19 02:34:27;;;;;;;10.83;2.00;;;;;;;8.87;78.17;102207.09;5053271;28;20448;-67
2023/05/19 02:36:55;;;;;;;6.13;1.30;;;;;;;8.92;78.23;102206.34;5053561;28;20485;-67
2023/05/19 02:39:21;;;;;;;6.03;1.33;;;;;;;8.87;78.35;102207.09;5053463;28;20464;-67
2023/05/19 02:41:48;;;;;;;7.37;1.87;;;;;;;8.82;78.94;102205.16;5053564;28;20442;-67
2023/05/19 02:44:15;;;;;;;5.63;1.30;;;;;;;8.88;79.10;102205.22;5053118;28;21019;-67
2023/05/19 02:46:41;;;;;;;7.03;1.40;;;;;;;8.80;79.20;102207.25;5053381;28;20478;-67
2023/05/19 02:49:08;;;;;;;6.10;1.07;;;;;;;8.88;78.67;102210.63;5053354;28;20462;-67
2023/05/19 02:51:34;;;;;;;8.57;1.60;;;;;;;8.88;79.05;102210.63;5053350;28;20537;-67
2023/05/19 02:54:02;;;;;;;5.80;1.50;;;;;;;8.91;78.98;102210.13;5053253;28;20438;-67
2023/05/19 02:56:29;;;;;;;6.53;1.20;;;;;;;8.95;78.96;102211.25;5052991;28;20449;-67
2023/05/19 02:58:57;;;;;;;6.70;1.40;;;;;;;8.93;79.50;102210.69;5053255;28;20552;-67
2023/05/19 03:01:23;;;;;;;5.60;1.40;;;;;;;9.00;79.44;102205.91;5052949;28;20939;-67
2023/05/19 03:03:50;;;;;;;6.03;1.30;;;;;;;9.04;78.97;102204.34;5053138;28;20438;-67
2023/05/19 03:06:16;;;;;;;7.43;2.20;;;;;;;9.04;79.35;102201.66;5052749;28;20970;-68
2023/05/19 03:08:43;;;;;;;7.23;1.60;;;;;;;9.10;79.25;102200.63;5052729;28;20836;-67
2023/05/19 03:11:11;;;;;;;4.83;1.20;;;;;;;9.23;78.74;102199.44;5053125;28;20496;-67
2023/05/19 03:13:37;;;;;;;6.00;1.10;;;;;;;9.18;79.05;102197.50;5052777;28;20808;-67
2023/05/19 03:16:06;;;;;;;10.57;1.43;;;;;;;9.27;78.51;102198.69;5053385;28;20453;-68
2023/05/19 03:18:33;;;;;;;5.10;1.33;;;;;;;9.22;78.31;102198.63;5052872;28;20450;-67
2023/05/19 03:21:00;;;;;;;4.87;1.10;;;;;;;9.26;78.26;102199.75;5055047;28;20446;-67
2023/05/19 03:23:26;;;;;;;5.73;1.40;;;;;;;9.30;77.48;102203.59;5058172;28;21026;-70
2023/05/19 03:25:54;;;;;;;11.40;1.47;;;;;;;9.31;76.10;102209.81;5057378;28;20437;-70
2023/05/19 03:28:22;;;;;;;8.90;1.90;;;;;;;9.29;75.98;102209.25;5056719;28;20492;-70
2023/05/19 03:30:49;;;;;;;5.50;1.27;;;;;;;9.28;75.35;102205.72;5056942;28;20465;-69
2023/05/19 03:33:16;;;;;;;5.37;1.57;;;;;;;9.19;75.04;102201.81;5056911;28;20445;-70
2023/05/19 03:35:44;;;;;;;5.87;1.40;;;;;;;9.13;75.39;102202.84;5056593;28;20453;-70
2023/05/19 03:38:10;;;;;;;7.00;1.40;;;;;;;9.13;75.96;102204.72;5056561;28;20936;-70
2023/05/19 03:40:37;;;;;;;5.23;1.13;;;;;;;9.10;76.16;102196.03;5056757;28;20553;-70
2023/05/19 03:43:04;;;;;;;5.87;1.60;;;;;;;9.13;77.21;102196.63;5056841;28;20876;-70
2023/05/19 03:45:32;;;;;;;5.27;0.97;;;;;;;9.14;78.34;102198.25;5056751;28;20474;-70
2023/05/19 03:47:58;;;;;;;9.80;1.90;;;;;;;9.13;79.02;102194.75;5056653;28;20482;-71
2023/05/19 03:50:27;;;;;;;5.17;1.00;;;;;;;9.11;79.63;102196.84;5056671;28;20524;-71
2023/05/19 03:52:54;;;;;;;6.03;1.83;;;;;;;9.19;79.94;102195.59;5056619;28;20828;-71
2023/05/19 03:55:21;;;;;;;6.43;1.10;;;;;;;9.28;79.58;102194.91;5056605;28;20474;-69
2023/05/19 03:57:47;;;;;;;5.23;1.20;;;;;;;9.34;79.59;102193.06;5056541;28;20444;-71
2023/05/19 04:00:15;;;;;;;12.23;1.10;;;;;;;9.38;79.17;102196.91;5056414;28;20470;-71
2023/05/19 04:02:43;;;;;;;7.20;1.30;;;;;;;9.40;79.70;102196.69;5056424;28;20446;-70
2023/05/19 04:05:10;;;;;;;4.97;1.00;;;;;;;9.46;79.18;102195.66;5056388;28;20534;-70
2023/05/19 04:07:37;;;;;;;5.00;1.27;;;;;;;9.50;79.43;102194.06;5056162;28;20492;-71
2023/05/19 04:10:05;;;;;;;8.60;1.90;;;;;;;9.58;79.47;102201.75;5055974;28;20462;-70
2023/05/19 04:12:32;;;;;;;6.10;1.20;;;;;;;9.49;80.20;102197.84;5055963;28;20448;-71
2023/05/19 04:14:58;;;;;;;12.13;1.90;;;;;;;9.56;79.73;102203.88;5056502;28;20529;-70
2023/05/19 04:17:25;;;;;;;6.23;1.87;;;;;;;9.63;79.83;102198.28;5056182;28;20464;-71
2023/05/19 04:19:54;;;;;;;6.40;2.10;;;;;;;9.68;79.21;102195.63;5056099;28;20469;-70
2023/05/19 04:22:20;;;;;;;11.63;1.67;;;;;;;9.70;79.61;102199.72;5056091;28;20529;-71
2023/05/19 04:24:47;;;;;;;10.00;1.73;;;;;;;9.78;78.89;102209.25;5055755;28;20441;-70
2023/05/19 04:27:15;;;;;;;6.57;1.50;;;;;;;9.79;79.37;102206.28;5055595;28;20478;-70
2023/05/19 04:29:42;;;;;;;6.53;1.87;;;;;;;9.88;79.09;102200.44;5055541;28;20548;-70
2023/05/19 04:32:09;;;;;;;7.00;1.80;;;;;;;9.91;79.29;102208.81;5054177;28;20520;-71
2023/05/19 04:34:38;;;;;;;9.23;2.00;;;;;;;9.98;78.86;102206.75;5055896;28;20873;-71
2023/05/19 04:37:08;;;;;;;7.57;1.80;;;;;;;10.04;78.25;102207.59;5055480;28;20969;-71
2023/05/19 04:39:37;;;;;;;7.70;1.30;;;;;;;10.07;78.35;102215.22;5055449;28;20476;-71
2023/05/19 04:42:04;;;;;;;13.03;1.90;;;;;;;10.16;78.62;102210.97;5055394;28;20543;-70
2023/05/19 04:44:32;;;;;;;7.40;1.80;;;;;;;10.26;78.29;102205.66;5055352;28;20450;-74
2023/05/19 04:46:59;;;;;;;12.83;2.23;;;;;;;10.32;78.17;102209.22;5055571;28;20543;-68
2023/05/19 04:49:25;;;;;;;5.07;1.03;;;;;;;10.38;76.51;102207.38;5055506;28;20512;-68
2023/05/19 04:51:52;;;;;;;6.53;1.70;;;;;;;10.47;75.98;102211.22;5055547;28;20438;-68
2023/05/19 04:54:20;;;;;;;7.67;1.87;;;;;;;10.52;74.37;102213.97;5055184;28;20500;-68
2023/05/19 04:56:47;;;;;;;6.00;1.30;;;;;;;10.58;74.73;102212.91;5055445;28;20496;-68
2023/05/19 04:59:13;;;;;;;5.17;1.23;;;;;;;10.64;75.94;102222.72;5055285;28;20561;-67
2023/05/19 05:01:41;;;;;;;5.43;1.33;;;;;;;10.71;75.93;102222.50;5055361;28;20453;-67
2023/05/19 05:04:08;;;;;;;8.00;1.60;;;;;;;10.77;76.26;102216.84;5055273;28;20445;-68
2023/05/19 05:06:37;;;;;;;5.83;1.63;;;;;;;10.83;77.07;102215.78;5055200;28;20446;-68
2023/05/19 05:09:03;;;;;;;5.97;1.23;;;;;;;10.89;77.60;102211.25;5055436;28;20490;-68
2023/05/19 05:11:32;;;;;;;5.77;1.50;;;;;;;11.02;76.53;102218.06;5054864;28;20959;-68
2023/05/19 05:13:59;;;;;;;5.30;1.70;;;;;;;11.10;76.44;102212.94;5055083;28;20468;-68
2023/05/19 05:16:26;;;;;;;5.67;1.50;;;;;;;11.19;77.12;102220.59;5054739;28;20943;-68
2023/05/19 05:18:53;;;;;;;5.70;1.50;;;;;;;11.25;77.24;102222.25;5055004;28;20567;-68
2023/05/19 05:21:21;;;;;;;8.73;1.50;;;;;;;11.40;76.95;102224.19;5054966;28;20453;-68
2023/05/19 05:23:50;;;;;;;6.10;1.83;;;;;;;11.49;76.64;102218.00;5054598;28;20931;-68
2023/05/19 05:26:18;;;;;;;5.47;1.40;;;;;;;11.57;76.62;102219.38;5054878;28;20450;-68
2023/05/19 05:28:46;;;;;;;5.40;1.20;;;;;;;11.65;76.24;102218.84;5054683;28;20478;-68
2023/05/19 05:31:12;;;;;;;6.20;1.53;;;;;;;11.79;75.26;102213.72;5054782;28;20453;-68
2023/05/19 05:33:39;;;;;;;4.93;1.10;;;;;;;11.93;75.10;102219.47;5054681;28;20533;-68
2023/05/19 05:36:07;;;;;;;6.70;1.47;;;;;;;12.03;74.86;102214.84;5054417;28;20449;-68
2023/05/19 05:38:33;;;;;;;6.13;1.73;;;;;;;12.10;74.58;102217.31;5054485;28;20444;-68
2023/05/19 05:41:01;;;;;;;4.60;1.00;;;;;;;12.16;73.63;102210.78;5054575;28;20445;-68
2023/05/19 05:43:28;;;;;;;4.90;1.20;;;;;;;12.23;73.18;102211.34;5053843;28;20910;-68
2023/05/19 05:45:56;;;;;;;5.80;1.33;;;;;;;12.30;72.92;102214.59;5054547;28;20442;-68
2023/05/19 05:48:23;;;;;;;5.70;1.43;;;;;;;12.27;72.64;102217.06;5054134;28;20857;-68
2023/05/19 05:50:50;;;;;;;6.77;1.77;;;;;;;12.28;72.22;102218.69;5054277;28;21010;-67
2023/05/19 05:53:19;;;;;;;6.63;1.57;;;;;;;12.32;72.25;102217.88;5054255;28;20525;-68
2023/05/19 05:55:46;;;;;;;5.90;1.73;;;;;;;12.29;72.58;102215.69;5054063;28;20446;-68
2023/05/19 05:58:14;;;;;;;10.50;2.37;;;;;;;12.34;72.66;102218.41;5054271;28;20470;-68
2023/05/19 06:00:42;;;;;;;6.20;2.00;;;;;;;12.34;72.53;102212.97;5054127;28;20516;-68
2023/05/19 06:03:10;;;;;;;12.70;1.40;;;;;;;12.38;72.66;102203.19;5054230;28;20496;-68
2023/05/19 06:05:37;;;;;;;5.70;1.40;;;;;;;12.46;72.41;102220.03;5054143;28;20457;-72
2023/05/19 06:08:04;;;;;;;6.37;2.07;;;;;;;12.49;73.06;102208.63;5053889;28;20884;-71
2023/05/19 06:10:31;;;;;;;6.70;2.17;;;;;;;12.57;72.79;102210.75;5053697;28;20469;-71
2023/05/19 06:12:57;;;;;;;6.93;1.83;;;;;;;12.67;72.61;102204.53;5053688;28;20444;-71
2023/05/19 06:15:24;;;;;;;5.10;1.33;;;;;;;12.82;71.47;102212.63;5054145;28;20529;-70
2023/05/19 06:17:51;;;;;;;5.80;1.50;;;;;;;12.92;68.94;102218.03;5053920;28;20794;-73
2023/05/19 06:20:19;;;;;;;7.70;2.20;;;;;;;13.00;68.27;102219.38;5053784;28;20489;-72
2023/05/19 06:22:46;;;;;;;6.10;1.47;;;;;;;13.04;68.59;102217.72;5053883;28;20451;-71
2023/05/19 06:25:12;;;;;;;6.17;1.20;;;;;;;13.14;68.10;102218.50;5053476;28;20448;-68
2023/05/19 06:27:39;;;;;;;5.30;1.40;;;;;;;13.26;68.04;102222.84;5053684;28;20505;-68
2023/05/19 06:30:07;;;;;;;6.07;1.20;;;;;;;13.30;68.34;102227.47;5053877;28;20469;-68
2023/05/19 06:32:34;;;;;;;5.13;1.37;;;;;;;13.38;68.16;102223.34;5052956;28;20537;-67
2023/05/19 06:35:00;;;;;;;6.03;1.60;;;;;;;13.49;68.20;102221.38;5053617;28;20474;-68
2023/05/19 06:37:28;;;;;;;7.63;1.80;;;;;;;13.60;68.13;102228.41;5053638;28;20480;-68
2023/05/19 06:39:55;;;;;;;5.63;1.60;;;;;;;13.73;68.44;102224.25;5053724;28;20494;-67
2023/05/19 06:42:22;;;;;;;8.63;1.47;;;;;;;13.83;67.21;102233.16;5053590;28;20448;-67
2023/05/19 06:44:49;;;;;;;9.47;2.07;;;;;;;13.97;67.52;102221.63;5053552;28;20464;-67
2023/05/19 06:47:16;;;;;;;6.07;1.50;;;;;;;13.91;66.59;102223.59;5053146;28;20458;-72
2023/05/19 06:49:43;;;;;;;5.17;1.30;;;;;;;13.95;66.53;102219.19;5053542;28;20525;-71
2023/05/19 06:52:10;;;;;;;6.30;2.03;;;;;;;13.96;67.30;102215.38;5053614;28;20529;-70
2023/05/19 06:54:38;;;;;;;6.20;1.90;;;;;;;13.98;67.08;102215.88;5052998;28;20494;-70
2023/05/19 06:57:05;;;;;;;7.90;1.77;;;;;;;13.97;66.83;102216.19;5053299;28;20835;-71
2023/05/19 06:59:32;;;;;;;8.93;2.00;;;;;;;13.91;68.25;102217.31;5053374;28;20462;-71
2023/05/19 07:01:58;;;;;;;7.13;1.60;;;;;;;13.92;69.10;102219.75;5053231;28;20874;-71
2023/05/19 07:04:26;;;;;;;11.93;1.50;;;;;;;13.98;69.72;102215.88;5053190;28;20940;-70
2023/05/19 07:06:53;;;;;;;11.80;1.70;;;;;;;14.08;69.29;102225.91;5053063;28;20462;-70
2023/05/19 07:09:20;;;;;;;8.60;1.73;;;;;;;14.13;68.64;102225.88;5052626;28;20549;-71
2023/05/19 07:11:48;;;;;;;5.90;1.70;;;;;;;14.17;66.63;102218.75;5052961;28;20517;-70
2023/05/19 07:14:14;;;;;;;6.07;1.53;;;;;;;14.25;68.87;102222.78;5053152;28;20920;-71
2023/05/19 07:16:41;;;;;;;6.67;1.67;;;;;;;14.29;69.61;102224.63;5052893;28;20489;-70
2023/05/19 07:19:08;;;;;;;7.40;1.50;;;;;;;14.34;68.59;102219.16;5052964;28;20501;-70
2023/05/19 07:21:35;;;;;;;9.70;2.27;;;;;;;14.44;68.84;102225.63;5053109;28;20964;-70
2023/05/19 07:24:01;;;;;;;8.53;1.50;;;;;;;14.50;69.05;102224.50;5053077;28;20520;-71
2023/05/19 07:26:28;;;;;;;8.23;1.97;;;;;;;14.58;68.62;102226.59;5052720;28;20453;-71
2023/05/19 07:28:56;;;;;;;7.63;1.80;;;;;;;14.66;67.01;102217.81;5052922;28;20577;-70
2023/05/19 07:31:23;;;;;;;7.37;1.53;;;;;;;14.68;68.98;102217.50;5052993;28;20821;-71
2023/05/19 07:33:50;;;;;;;11.43;1.90;;;;;;;14.69;65.83;102219.94;5052637;28;20438;-71
2023/05/19 07:36:16;;;;;;;8.03;1.60;;;;;;;14.75;65.06;102213.34;5052904;28;20442;-70
2023/05/19 07:38:43;;;;;;;9.47;1.60;;;;;;;15.05;65.76;102219.53;5052856;28;20442;-71
2023/05/19 07:41:09;;;;;;;5.80;1.60;;;;;;;15.35;65.11;102210.16;5052927;28;20525;-70
2023/05/19 07:43:36;;;;;;;5.37;1.30;;;;;;;15.68;64.22;102215.78;5052860;28;20438;-72
2023/05/19 07:46:06;;;;;;;6.57;2.17;;;;;;;15.89;65.00;102217.91;5053320;28;20448;-71
2023/05/19 07:48:32;;;;;;;5.53;1.30;;;;;;;15.97;63.59;102201.94;5052981;28;20478;-71
2023/05/19 07:50:59;;;;;;;10.33;1.93;;;;;;;16.05;64.76;102213.00;5052493;28;20529;-70
2023/05/19 07:53:26;;;;;;;7.80;1.30;;;;;;;16.15;64.09;102206.56;5052632;28;20438;-71
2023/05/19 07:55:53;;;;;;;7.40;1.77;;;;;;;16.22;62.49;102209.72;5052744;28;20448;-71
2023/05/19 07:58:19;;;;;;;6.13;1.03;;;;;;;16.36;62.17;102213.31;5052679;28;20438;-71
2023/05/19 08:00:46;;;;;;;5.00;1.03;;;;;;;16.49;62.10;102208.16;5052653;28;20465;-68
2023/05/19 08:03:16;;;;;;;6.67;1.43;;;;;;;16.65;60.58;102209.53;5052609;28;20528;-70
2023/05/19 08:05:42;;;;;;;7.30;1.53;;;;;;;16.90;61.14;102206.31;5052608;28;20833;-71
2023/05/19 08:08:10;;;;;;;9.83;1.37;;;;;;;16.98;59.36;102209.47;5055999;28;20495;-70
2023/05/19 08:10:37;;;;;;;8.50;1.93;;;;;;;16.97;59.67;102202.38;5055944;28;20979;-70
2023/05/19 08:13:04;;;;;;;5.30;1.20;;;;;;;16.94;60.52;102202.97;5056257;28;20446;-71
2023/05/19 08:15:30;;;;;;;6.43;1.30;;;;;;;17.03;60.26;102217.56;5055953;28;20962;-71
2023/05/19 08:17:57;;;;;;;4.70;1.20;;;;;;;17.12;58.29;102210.25;5056198;28;20438;-70
2023/05/19 08:20:25;;;;;;;5.00;1.07;;;;;;;17.26;58.13;102211.06;5056066;28;20472;-71
2023/05/19 08:22:51;;;;;;;4.80;1.07;;;;;;;17.40;59.99;102203.66;5056214;28;20482;-72
2023/05/19 08:25:18;;;;;;;5.60;1.20;;;;;;;17.51;57.08;102214.38;5056083;28;20442;-70
2023/05/19 08:27:45;;;;;;;5.63;1.17;;;;;;;17.64;57.78;102214.34;5055705;28;20868;-71
2023/05/19 08:30:12;;;;;;;4.40;0.90;;;;;;;17.79;57.10;102213.19;5055482;28;20857;-71
2023/05/19 08:32:39;;;;;;;7.60;1.30;;;;;;;17.84;55.62;102215.00;5055848;28;20485;-71
2023/05/19 08:35:06;;;;;;;5.40;1.23;;;;;;;17.93;55.92;102212.34;5055904;28;20820;-70
2023/05/19 08:37:35;;;;;;;5.57;1.20;;;;;;;17.85;56.13;102222.94;5055484;28;20448;-71
2023/05/19 08:40:03;;;;;;;13.60;1.20;;;;;;;17.93;54.60;102215.06;5055382;28;20844;-70
2023/05/19 08:42:31;;;;;;;5.40;1.40;;;;;;;17.93;55.14;102217.81;5055734;28;20465;-71
2023/05/19 08:44:58;;;;;;;5.87;1.50;;;;;;;17.89;52.87;102207.50;5055702;28;20450;-71
2023/05/19 08:47:26;;;;;;;5.27;1.33;;;;;;;17.96;53.87;102211.72;5055803;28;20438;-71
2023/05/19 08:49:59;;;;;;;5.33;1.20;;;;;;;18.11;53.21;102209.44;5055433;28;20486;-71
2023/05/19 08:52:32;;;;;;;5.27;1.20;;;;;;;18.24;53.51;102209.66;5055293;28;20951;-71
2023/05/19 08:55:04;;;;;;;5.13;1.37;;;;;;;18.34;52.71;102196.50;5055226;28;20911;-71
2023/05/19 08:57:32;;;;;;;5.53;1.63;;;;;;;18.32;53.44;102201.47;5055449;28;20434;-71
2023/05/19 09:00:00;;;;;;;5.50;1.33;;;;;;;18.32;51.63;102190.50;5055339;28;20524;-71
2023/05/19 09:02:27;;;;;;;7.10;1.23;;;;;;;18.53;51.71;102196.25;5055439;28;20481;-71
2023/05/19 09:04:56;;;;;;;5.30;1.33;;;;;;;18.54;50.94;102189.63;5055364;28;20496;-71
2023/05/19 09:07:24;;;;;;;4.80;1.00;;;;;;;18.69;49.05;102185.72;5055057;28;20458;-70
2023/05/19 09:09:51;;;;;;;6.23;1.10;;;;;;;18.69;49.85;102182.13;5055074;28;20543;-71
2023/05/19 09:12:20;;;;;;;4.80;0.90;;;;;;;18.52;48.86;102180.13;5054786;28;20438;-71
2023/05/19 09:14:47;;;;;;;4.53;1.13;;;;;;;18.49;50.20;102189.78;5054809;28;20447;-71
2023/05/19 09:17:14;;;;;;;5.47;1.27;;;;;;;18.57;50.26;102183.53;5054793;28;20977;-71
2023/05/19 09:19:43;;;;;;;4.80;0.90;;;;;;;18.67;49.53;102179.69;5054184;28;20458;-70
2023/05/19 09:22:10;;;;;;;10.57;1.30;;;;;;;18.81;47.88;102174.94;5054928;28;20450;-71
2023/05/19 09:24:37;;;;;;;4.20;0.67;;;;;;;18.95;48.33;102177.56;5056298;28;20443;-71
2023/05/19 09:27:04;;;;;;;4.63;0.80;;;;;;;19.11;47.33;102181.47;5054931;28;20443;-71
2023/05/19 09:29:32;;;;;;;8.60;1.40;;;;;;;19.28;48.00;102171.66;5054777;28;20486;-71
2023/05/19 09:32:00;;;;;;;4.97;0.80;;;;;;;19.42;47.12;102170.38;5054543;28;20535;-71
2023/05/19 09:34:27;;;;;;;4.13;0.67;;;;;;;19.49;46.27;102174.59;5054738;28;20448;-71
2023/05/19 09:36:54;;;;;;;4.87;0.93;;;;;;;19.46;46.83;102169.75;5054774;28;20470;-71
2023/05/19 09:39:22;;;;;;;6.60;1.33;;;;;;;19.56;47.02;102161.97;5054506;28;20461;-71
2023/05/19 09:41:51;;;;;;;6.10;1.00;;;;;;;19.54;46.22;102167.00;5054704;28;20524;-71
2023/05/19 09:44:22;;;;;;;4.90;1.20;;;;;;;19.57;45.06;102171.06;5054596;28;20438;-71
2023/05/19 09:46:52;;;;;;;4.80;1.20;;;;;;;19.33;45.32;102166.81;5054575;28;20434;-71
2023/05/19 09:49:20;;;;;;;5.83;1.00;;;;;;;19.28;44.91;102152.44;5054312;28;20496;-71
2023/05/19 09:51:49;;;;;;;4.40;0.80;;;;;;;19.38;46.47;102160.34;5054368;28;20434;-71
2023/05/19 09:54:16;;;;;;;5.40;0.87;;;;;;;19.50;46.21;102155.03;5054382;28;20442;-71
2023/05/19 09:56:43;;;;;;;4.70;0.90;;;;;;;19.50;45.49;102156.97;5054308;28;20442;-71
2023/05/19 09:59:09;;;;;;;5.03;1.10;;;;;;;19.43;45.17;102154.69;5054238;28;20557;-71
2023/05/19 10:01:39;;;;;;;4.47;0.67;;;;;;;19.60;44.25;102157.47;5054309;28;20448;-71
2023/05/19 10:04:08;;;;;;;4.10;0.70;;;;;;;19.67;44.62;102151.50;5054187;28;20446;-71
2023/05/19 10:06:35;;;;;;;4.70;0.80;;;;;;;19.58;44.77;102147.91;5053588;28;20970;-71
2023/05/19 10:09:02;;;;;;;6.73;1.23;;;;;;;19.58;44.42;102139.66;5053665;28;21009;-71
2023/05/19 10:11:30;;;;;;;4.70;0.80;;;;;;;19.84;44.97;102140.50;5054044;28;20482;-71
2023/05/19 10:13:57;;;;;;;4.20;0.67;;;;;;;20.11;43.13;102144.00;5053979;28;20476;-71
2023/05/19 10:16:27;;;;;;;4.53;0.70;;;;;;;20.36;43.85;102140.38;5053940;28;20452;-71
2023/05/19 10:18:57;;;;;;;4.60;0.90;;;;;;;20.39;44.06;102139.69;5054157;28;20462;-71
2023/05/19 10:21:25;;;;;;;5.00;0.70;;;;;;;20.35;43.70;102148.94;5053520;28;20955;-71
2023/05/19 10:23:52;;;;;;;4.40;0.77;;;;;;;20.41;43.23;102142.94;5053565;28;20482;-71
2023/05/19 10:26:20;;;;;;;11.23;1.30;;;;;;;20.37;42.09;102149.44;5053767;28;20438;-71
2023/05/19 10:28:47;;;;;;;4.20;0.60;;;;;;;20.21;42.15;102145.59;5053342;28;20442;-71
2023/05/19 10:31:20;;;;;;;4.30;0.80;;;;;;;20.01;41.48;102131.41;5053446;28;20438;-71
2023/05/19 10:34:01;;;;;;;5.23;0.93;;;;;;;19.93;42.41;102134.16;5054022;28;20422;-71
2023/05/19 10:36:44;;;;;;;5.00;1.03;;;;;;;19.88;42.94;102133.22;5053679;28;20469;-71
2023/05/19 10:39:20;;;;;;;4.67;0.83;;;;;;;19.90;43.56;102130.91;5053776;28;20481;-71
2023/05/19 10:41:53;;;;;;;4.20;0.60;;;;;;;19.90;43.06;102144.69;5053308;28;20422;-71
2023/05/19 10:44:28;;;;;;;4.37;0.73;;;;;;;19.91;43.98;102131.72;5053463;28;20430;-71
2023/05/19 10:46:55;;;;;;;5.43;1.10;;;;;;;20.02;43.65;102129.47;5053365;28;20434;-71
2023/05/19 10:49:22;;;;;;;4.70;0.70;;;;;;;20.07;42.98;102132.84;5053348;28;20486;-71
2023/05/19 10:51:52;;;;;;;7.00;0.93;;;;;;;20.04;43.33;102136.22;5053108;28;20537;-70
2023/05/19 10:54:42;;;;;;;5.37;1.00;;;;;;;20.00;43.76;102127.00;5053323;28;20873;-71
2023/05/19 10:57:13;;;;;;;4.23;0.73;;;;;;;20.25;43.32;102119.03;5053358;28;20517;-71
2023/05/19 10:59:40;;;;;;;4.43;0.67;;;;;;;20.71;43.77;102120.94;5052960;28;20458;-71
2023/05/19 11:02:08;;;;;;;4.93;1.10;;;;;;;21.02;42.26;102130.81;5053249;28;20870;-71
2023/05/19 11:04:47;;;;;;;4.10;0.70;;;;;;;21.13;41.08;102116.31;5053216;28;20791;-71
2023/05/19 11:07:18;;;;;;;10.77;1.07;;;;;;;20.87;41.88;102110.97;5052938;28;20488;-71
2023/05/19 11:09:50;;;;;;;4.60;1.00;;;;;;;20.76;42.16;102112.50;5052732;28;20485;-71
2023/05/19 11:12:21;;;;;;;6.30;0.83;;;;;;;20.61;41.57;102115.81;5052789;28;20939;-71
2023/05/19 11:14:48;;;;;;;4.20;0.50;;;;;;;20.45;41.92;102106.47;5052847;28;20419;-71
2023/05/19 11:17:16;;;;;;;4.53;0.70;;;;;;;20.72;42.56;102121.75;5053133;28;20564;-71
2023/05/19 11:19:53;;;;;;;4.30;0.70;;;;;;;21.24;42.42;102116.69;5053019;28;20516;-70
2023/05/19 11:22:25;;;;;;;7.13;1.10;;;;;;;22.02;40.17;102109.69;5053021;28;20469;-71
2023/05/19 11:24:54;;;;;;;5.53;0.93;;;;;;;22.82;40.37;102118.28;5052789;28;20834;-71
2023/05/19 11:27:24;;;;;;;4.43;0.63;;;;;;;23.34;39.51;102117.50;5052942;28;20517;-71
2023/05/19 11:29:51;;;;;;;4.43;0.60;;;;;;;23.37;36.58;102105.75;5052751;28;20489;-71
2023/05/19 11:32:19;;;;;;;4.13;0.63;;;;;;;22.83;37.58;102110.78;5052822;28;20450;-71